createdAt,value
2018-09-01T00:01:28.170Z,10.90
2018-09-01T00:03:58.776Z,11.00
2018-09-01T00:06:29.745Z,10.90
2018-09-01T00:09:01.202Z,10.90
2018-09-01T00:11:32.667Z,10.90
2018-09-01T00:14:03.392Z,10.90
2018-09-01T00:16:42.883Z,10.90
2018-09-01T00:19:14.090Z,10.90
2018-09-01T00:21:45.520Z,10.90
2018-09-01T00:24:16.173Z,10.90
2018-09-01T00:26:46.916Z,10.90
2018-09-01T00:29:17.784Z,10.90
2018-09-01T00:31:49.013Z,10.90
2018-09-01T00:34:19.519Z,10.90
2018-09-01T00:36:50.238Z,10.90
2018-09-01T00:39:21.825Z,10.90
2018-09-01T00:41:53.032Z,10.90
2018-09-01T00:44:23.613Z,10.90
2018-09-01T00:46:54.411Z,10.90
2018-09-01T00:49:25.399Z,10.90
2018-09-01T00:51:56.085Z,10.80
2018-09-01T00:54:27.085Z,10.80
2018-09-01T00:56:57.884Z,10.80
2018-09-01T00:59:28.691Z,10.80
2018-09-01T01:01:59.314Z,10.80
2018-09-01T01:04:31.372Z,10.80
2018-09-01T01:07:05.150Z,10.80
2018-09-01T01:09:39.979Z,10.80
2018-09-01T01:12:10.644Z,10.80
2018-09-01T01:14:41.614Z,10.80
2018-09-01T01:17:12.474Z,10.70
2018-09-01T01:19:43.369Z,10.80
2018-09-01T01:22:18.766Z,10.70
2018-09-01T01:24:50.157Z,10.70
2018-09-01T01:27:20.931Z,10.70
2018-09-01T01:29:51.619Z,10.70
2018-09-01T01:32:22.579Z,10.70
2018-09-01T01:34:53.313Z,10.70
2018-09-01T01:37:24.230Z,10.70
2018-09-01T01:39:55.394Z,10.70
2018-09-01T01:42:25.966Z,10.70
2018-09-01T01:44:56.947Z,10.70
2018-09-01T01:47:27.505Z,10.80
2018-09-01T01:49:59.011Z,10.80
2018-09-01T01:52:29.939Z,10.80
2018-09-01T01:55:00.782Z,10.80
2018-09-01T01:57:41.104Z,10.80
2018-09-01T02:00:13.337Z,10.80
2018-09-01T02:02:44.225Z,10.80
2018-09-01T02:05:21.993Z,10.80
2018-09-01T02:07:54.247Z,10.70
2018-09-01T02:10:25.223Z,10.70
2018-09-01T02:12:55.938Z,10.70
2018-09-01T02:15:27.062Z,10.70
2018-09-01T02:17:58.746Z,10.70
2018-09-01T02:20:30.806Z,10.60
2018-09-01T02:23:01.429Z,10.60
2018-09-01T02:25:32.133Z,10.60
2018-09-01T02:28:02.899Z,10.60
2018-09-01T02:30:33.807Z,10.60
2018-09-01T02:33:11.490Z,10.60
2018-09-01T02:35:42.796Z,10.60
2018-09-01T02:38:13.597Z,10.60
2018-09-01T02:40:44.448Z,10.60
2018-09-01T02:43:15.280Z,10.50
2018-09-01T02:45:46.152Z,10.50
2018-09-01T02:51:28.912Z,10.50
2018-09-01T02:53:59.494Z,10.50
2018-09-01T02:56:30.560Z,10.50
2018-09-01T02:59:05.803Z,10.50
2018-09-01T03:01:46.274Z,10.40
2018-09-01T03:04:25.140Z,10.40
2018-09-01T03:07:00.084Z,10.40
2018-09-01T03:09:30.741Z,10.40
2018-09-01T03:12:03.710Z,10.40
2018-09-01T03:14:35.145Z,10.40
2018-09-01T03:17:06.362Z,10.30
2018-09-01T03:19:37.441Z,10.30
2018-09-01T03:22:11.790Z,10.30
2018-09-01T03:24:44.123Z,10.30
2018-09-01T03:27:14.959Z,10.30
2018-09-01T03:29:47.851Z,10.30
2018-09-01T03:32:18.771Z,10.20
2018-09-01T03:35:03.870Z,10.20
2018-09-01T03:37:34.676Z,10.20
2018-09-01T03:40:06.536Z,10.10
2018-09-01T03:42:37.602Z,10.10
2018-09-01T03:45:08.476Z,10.00
2018-09-01T03:47:44.122Z,10.00
2018-09-01T03:50:14.848Z,10.00
2018-09-01T03:52:48.508Z,9.90
2018-09-01T03:55:19.577Z,9.90
2018-09-01T04:00:38.628Z,9.80
2018-09-01T04:03:19.160Z,9.80
2018-09-01T04:06:00.842Z,9.70
2018-09-01T04:08:31.972Z,9.60
2018-09-01T04:11:02.802Z,9.60
2018-09-01T04:13:33.724Z,9.60
2018-09-01T04:16:04.465Z,9.50
2018-09-01T04:18:42.317Z,9.50
2018-09-01T04:21:17.895Z,9.50
2018-09-01T04:33:29.603Z,9.40
2018-09-01T04:36:18.466Z,9.40
2018-09-01T04:39:12.565Z,9.30
2018-09-01T04:41:43.542Z,9.30
2018-09-01T04:44:14.411Z,9.20
2018-09-01T04:46:45.546Z,9.20
2018-09-01T04:49:40.775Z,9.20
2018-09-01T04:52:42.289Z,9.20
2018-09-01T04:55:13.285Z,9.20
2018-09-01T04:57:44.139Z,9.20
2018-09-01T05:00:25.201Z,9.20
2018-09-01T05:02:55.769Z,9.20
2018-09-01T05:05:26.716Z,9.20
2018-09-01T05:07:57.360Z,9.30
2018-09-01T05:10:28.070Z,9.30
2018-09-01T05:13:11.863Z,9.30
2018-09-01T05:15:43.079Z,9.40
2018-09-01T05:21:12.454Z,9.60
2018-09-01T05:23:43.148Z,9.60
2018-09-01T05:29:24.286Z,9.80
2018-09-01T05:31:55.401Z,9.80
2018-09-01T05:34:26.210Z,9.80
2018-09-01T05:36:57.878Z,9.80
2018-09-01T05:39:30.822Z,9.90
2018-09-01T05:42:10.060Z,9.90
2018-09-01T05:44:41.570Z,9.90
2018-09-01T05:47:13.140Z,10.00
2018-09-01T05:49:43.996Z,10.00
2018-09-01T05:52:14.647Z,10.20
2018-09-01T05:54:46.688Z,10.20
2018-09-01T05:57:17.262Z,10.40
2018-09-01T05:59:48.432Z,10.40
2018-09-01T06:02:19.354Z,10.40
2018-09-01T06:04:50.447Z,10.30
2018-09-01T06:07:25.263Z,10.40
2018-09-01T06:12:45.088Z,10.40
2018-09-01T06:15:15.725Z,10.50
2018-09-01T06:17:46.795Z,10.50
2018-09-01T06:20:17.507Z,10.50
2018-09-01T06:22:48.606Z,10.60
2018-09-01T06:25:19.349Z,10.80
2018-09-01T06:27:57.096Z,10.90
2018-09-01T06:40:22.503Z,10.90
2018-09-01T06:42:54.915Z,11.10
2018-09-01T06:45:26.727Z,11.30
2018-09-01T06:47:57.328Z,11.30
2018-09-01T06:50:45.093Z,11.40
2018-09-01T06:53:15.652Z,11.50
2018-09-01T06:55:46.653Z,11.60
2018-09-01T06:58:17.531Z,11.50
2018-09-01T07:00:48.511Z,11.50
2018-09-01T07:03:19.060Z,11.60
2018-09-01T07:05:49.962Z,11.70
2018-09-01T07:08:24.459Z,11.70
2018-09-01T07:10:56.018Z,11.70
2018-09-01T07:13:37.327Z,11.90
2018-09-01T07:16:14.657Z,12.00
2018-09-01T07:18:46.857Z,12.10
2018-09-01T07:21:17.303Z,12.20
2018-09-01T07:23:50.251Z,12.50
2018-09-01T07:26:40.865Z,12.70
2018-09-01T07:29:14.437Z,13.00
2018-09-01T07:31:45.175Z,13.20
2018-09-01T07:34:17.922Z,13.30
2018-09-01T07:36:48.508Z,13.50
2018-09-01T07:39:19.093Z,13.60
2018-09-01T07:41:49.533Z,13.80
2018-09-01T07:44:20.195Z,13.90
2018-09-01T07:46:50.795Z,13.90
2018-09-01T07:49:21.495Z,13.90
2018-09-01T07:52:01.881Z,13.90
2018-09-01T07:54:32.774Z,14.10
2018-09-01T07:57:03.495Z,14.10
2018-09-01T07:59:34.125Z,14.30
2018-09-01T08:02:04.438Z,14.40
2018-09-01T08:04:35.656Z,14.30
2018-09-01T08:07:06.101Z,14.30
2018-09-01T08:09:36.425Z,14.30
2018-09-01T08:12:06.995Z,14.30
2018-09-01T08:14:37.714Z,14.50
2018-09-01T08:17:08.274Z,14.70
2018-09-01T08:19:39.091Z,14.90
2018-09-01T08:22:10.409Z,14.90
2018-09-01T08:24:40.672Z,15.00
2018-09-01T08:27:12.162Z,14.90
2018-09-01T08:29:43.161Z,15.00
2018-09-01T08:32:14.416Z,15.10
2018-09-01T08:34:45.131Z,15.00
2018-09-01T08:37:16.207Z,15.00
2018-09-01T08:39:46.722Z,15.00
2018-09-01T08:42:18.111Z,15.10
2018-09-01T08:44:48.849Z,15.20
2018-09-01T08:47:19.133Z,15.40
2018-09-01T08:49:49.515Z,15.50
2018-09-01T08:52:20.207Z,15.70
2018-09-01T08:54:50.821Z,15.90
2018-09-01T08:57:21.571Z,16.10
2018-09-01T08:59:52.225Z,16.30
2018-09-01T09:02:23.187Z,16.30
2018-09-01T09:04:54.047Z,16.30
2018-09-01T09:07:24.695Z,16.20
2018-09-01T09:09:55.406Z,16.30
2018-09-01T09:12:26.604Z,16.40
2018-09-01T09:14:57.399Z,16.50
2018-09-01T09:17:29.262Z,16.40
2018-09-01T09:19:59.968Z,16.40
2018-09-01T09:22:30.762Z,16.40
2018-09-01T09:25:01.477Z,16.70
2018-09-01T09:27:32.987Z,16.90
2018-09-01T09:30:04.326Z,17.00
2018-09-01T09:32:35.715Z,17.00
2018-09-01T09:35:06.529Z,17.00
2018-09-01T09:37:37.381Z,17.00
2018-09-01T09:40:08.568Z,17.10
2018-09-01T09:42:39.996Z,17.20
2018-09-01T09:45:11.226Z,17.30
2018-09-01T09:47:41.904Z,17.20
2018-09-01T09:50:12.527Z,17.00
2018-09-01T09:52:43.289Z,17.00
2018-09-01T09:55:13.997Z,16.90
2018-09-01T09:57:45.306Z,16.80
2018-09-01T10:00:20.153Z,16.80
2018-09-01T10:02:50.932Z,17.10
2018-09-01T10:05:21.727Z,17.30
2018-09-01T10:07:52.522Z,17.60
2018-09-01T10:10:23.230Z,17.70
2018-09-01T10:12:54.274Z,17.60
2018-09-01T10:15:25.239Z,17.40
2018-09-01T10:17:56.140Z,17.40
2018-09-01T10:20:27.175Z,17.60
2018-09-01T10:22:58.182Z,17.60
2018-09-01T10:25:29.095Z,17.70
2018-09-01T10:27:59.864Z,17.50
2018-09-01T10:30:31.040Z,17.00
2018-09-01T10:33:02.063Z,16.70
2018-09-01T10:35:32.976Z,16.30
2018-09-01T10:38:04.127Z,16.30
2018-09-01T10:40:34.871Z,16.50
2018-09-01T10:43:06.142Z,16.60
2018-09-01T10:45:37.044Z,16.50
2018-09-01T10:48:08.439Z,16.80
2018-09-01T10:50:39.212Z,17.20
2018-09-01T10:53:10.149Z,17.70
2018-09-01T10:55:40.962Z,18.00
2018-09-01T10:58:11.956Z,18.40
2018-09-01T11:00:42.785Z,18.80
2018-09-01T11:03:13.564Z,18.70
2018-09-01T11:05:44.498Z,18.70
2018-09-01T11:08:15.480Z,18.90
2018-09-01T11:10:46.346Z,18.80
2018-09-01T11:13:17.328Z,18.20
2018-09-01T11:15:47.971Z,17.70
2018-09-01T11:18:18.829Z,17.30
2018-09-01T11:20:49.728Z,17.20
2018-09-01T11:23:20.702Z,17.30
2018-09-01T11:25:51.573Z,17.60
2018-09-01T11:28:22.319Z,18.10
2018-09-01T11:30:53.598Z,18.40
2018-09-01T11:33:24.642Z,18.90
2018-09-01T11:35:55.427Z,19.10
2018-09-01T11:38:26.112Z,19.30
2018-09-01T11:40:56.736Z,19.20
2018-09-01T11:43:27.328Z,18.80
2018-09-01T11:45:59.016Z,18.50
2018-09-01T11:48:29.796Z,18.10
2018-09-01T11:51:00.358Z,17.80
2018-09-01T11:53:31.125Z,17.60
2018-09-01T11:56:01.899Z,17.40
2018-09-01T11:58:33.058Z,17.10
2018-09-01T12:01:03.945Z,16.90
2018-09-01T12:03:34.909Z,16.80
2018-09-01T12:06:05.927Z,16.90
2018-09-01T12:08:36.725Z,17.10
2018-09-01T12:11:07.941Z,17.60
2018-09-01T12:13:38.809Z,18.10
2018-09-01T12:16:09.517Z,18.40
2018-09-01T12:18:40.248Z,18.60
2018-09-01T12:21:11.219Z,19.00
2018-09-01T12:23:42.486Z,18.70
2018-09-01T12:26:13.561Z,18.50
2018-09-01T12:28:44.304Z,18.30
2018-09-01T12:31:15.145Z,18.10
2018-09-01T12:33:45.879Z,17.90
2018-09-01T12:36:17.285Z,17.70
2018-09-01T12:38:48.060Z,17.50
2018-09-01T12:41:19.096Z,17.50
2018-09-01T12:43:49.983Z,17.50
2018-09-01T12:46:20.631Z,17.60
2018-09-01T12:48:51.323Z,18.00
2018-09-01T12:51:21.974Z,18.40
2018-09-01T12:53:53.003Z,19.00
2018-09-01T12:56:23.922Z,19.30
2018-09-01T12:58:54.633Z,19.40
2018-09-01T13:01:25.487Z,18.90
2018-09-01T13:03:56.051Z,18.60
2018-09-01T13:06:26.639Z,18.30
2018-09-01T13:08:57.522Z,18.10
2018-09-01T13:11:28.723Z,18.00
2018-09-01T13:13:59.381Z,17.80
2018-09-01T13:16:30.332Z,17.60
2018-09-01T13:19:01.248Z,17.50
2018-09-01T13:21:32.177Z,17.50
2018-09-01T13:24:02.866Z,17.90
2018-09-01T13:26:33.511Z,18.10
2018-09-01T13:29:04.535Z,18.30
2018-09-01T13:31:35.651Z,18.50
2018-09-01T13:34:06.322Z,18.60
2018-09-01T13:36:36.986Z,18.60
2018-09-01T13:39:08.585Z,18.70
2018-09-01T13:41:39.399Z,19.00
2018-09-01T13:44:10.281Z,19.10
2018-09-01T13:46:41.367Z,18.90
2018-09-01T13:49:12.117Z,18.70
2018-09-01T13:51:42.856Z,18.40
2018-09-01T13:54:13.678Z,18.20
2018-09-01T13:56:44.756Z,18.20
2018-09-01T13:59:15.852Z,18.40
2018-09-01T14:01:46.762Z,18.50
2018-09-01T14:04:17.853Z,18.60
2018-09-01T14:06:48.466Z,18.20
2018-09-01T14:09:19.721Z,18.10
2018-09-01T14:11:50.643Z,17.90
2018-09-01T14:14:21.422Z,17.50
2018-09-01T14:16:53.043Z,17.30
2018-09-01T14:19:23.959Z,17.30
2018-09-01T14:21:54.737Z,17.20
2018-09-01T14:24:25.408Z,17.30
2018-09-01T14:26:56.867Z,17.60
2018-09-01T14:29:27.535Z,17.90
2018-09-01T14:31:58.616Z,18.10
2018-09-01T14:34:29.313Z,18.20
2018-09-01T14:36:59.974Z,18.10
2018-09-01T14:39:30.879Z,17.90
2018-09-01T14:42:01.592Z,18.00
2018-09-01T14:44:32.483Z,18.10
2018-09-01T14:47:04.216Z,18.40
2018-09-01T14:49:35.189Z,18.50
2018-09-01T14:52:06.572Z,18.40
2018-09-01T14:54:37.625Z,18.10
2018-09-01T14:57:08.490Z,17.80
2018-09-01T14:59:39.115Z,17.50
2018-09-01T15:02:10.203Z,17.30
2018-09-01T15:04:40.904Z,17.20
2018-09-01T15:07:11.933Z,17.30
2018-09-01T15:09:42.844Z,17.50
2018-09-01T15:12:13.484Z,17.80
2018-09-01T15:14:44.608Z,18.20
2018-09-01T15:17:15.416Z,18.30
2018-09-01T15:19:46.380Z,18.10
2018-09-01T15:22:17.234Z,18.20
2018-09-01T15:24:48.015Z,18.20
2018-09-01T15:27:19.050Z,18.20
2018-09-01T15:29:50.111Z,18.40
2018-09-01T15:32:21.218Z,18.50
2018-09-01T15:34:52.193Z,18.70
2018-09-01T15:37:22.987Z,18.70
2018-09-01T15:39:53.636Z,18.60
2018-09-01T15:42:24.508Z,18.20
2018-09-01T15:44:55.567Z,18.00
2018-09-01T15:47:26.991Z,17.80
2018-09-01T15:49:58.148Z,17.50
2018-09-01T15:52:28.988Z,17.30
2018-09-01T15:55:00.140Z,16.90
2018-09-01T15:57:30.926Z,16.60
2018-09-01T16:00:01.766Z,16.50
2018-09-01T16:02:32.747Z,16.30
2018-09-01T16:05:03.842Z,16.20
2018-09-01T16:07:34.634Z,16.20
2018-09-01T16:10:05.421Z,16.30
2018-09-01T16:12:36.460Z,16.50
2018-09-01T16:15:08.558Z,16.50
2018-09-01T16:17:40.246Z,16.40
2018-09-01T16:20:11.715Z,16.30
2018-09-01T16:22:42.750Z,16.20
2018-09-01T16:25:13.837Z,16.20
2018-09-01T16:27:44.664Z,16.20
2018-09-01T16:30:15.785Z,16.20
2018-09-01T16:32:46.558Z,16.30
2018-09-01T16:35:17.693Z,16.40
2018-09-01T16:37:48.768Z,16.40
2018-09-01T16:40:19.740Z,16.60
2018-09-01T16:42:50.900Z,16.60
2018-09-01T16:45:22.574Z,16.60
2018-09-01T16:47:53.938Z,16.60
2018-09-01T16:50:25.161Z,16.50
2018-09-01T16:52:55.939Z,16.40
2018-09-01T16:55:26.879Z,16.30
2018-09-01T16:57:57.658Z,16.20
2018-09-01T17:00:28.629Z,16.10
2018-09-01T17:02:59.276Z,16.10
2018-09-01T17:05:30.219Z,16.00
2018-09-01T17:08:00.984Z,15.90
2018-09-01T17:10:31.812Z,15.80
2018-09-01T17:13:02.770Z,15.70
2018-09-01T17:15:33.649Z,15.60
2018-09-01T17:18:04.637Z,15.50
2018-09-01T17:20:35.055Z,15.40
2018-09-01T17:23:06.145Z,15.30
2018-09-01T17:25:37.397Z,15.30
2018-09-01T17:28:08.050Z,15.20
2018-09-01T17:30:39.109Z,15.20
2018-09-01T17:33:10.168Z,15.10
2018-09-01T17:35:41.326Z,15.10
2018-09-01T17:38:11.764Z,15.00
2018-09-01T17:40:42.011Z,14.90
2018-09-01T17:43:12.639Z,14.90
2018-09-01T17:45:43.100Z,14.90
2018-09-01T17:48:13.608Z,14.70
2018-09-01T17:50:44.075Z,14.70
2018-09-01T17:53:14.434Z,14.60
2018-09-01T17:55:44.632Z,14.60
2018-09-01T17:58:15.283Z,14.50
2018-09-01T18:00:45.814Z,14.40
2018-09-01T18:03:16.175Z,14.40
2018-09-01T18:05:46.306Z,14.30
2018-09-01T18:08:17.088Z,14.30
2018-09-01T18:10:47.758Z,14.30
2018-09-01T18:13:18.093Z,14.30
2018-09-01T18:15:48.908Z,14.20
2018-09-01T18:18:19.344Z,14.10
2018-09-01T18:20:50.126Z,14.10
2018-09-01T18:23:20.710Z,14.10
2018-09-01T18:25:51.291Z,14.00
2018-09-01T18:28:21.946Z,14.00
2018-09-01T18:30:52.303Z,14.00
2018-09-01T18:33:22.485Z,13.90
2018-09-01T18:35:53.180Z,13.90
2018-09-01T18:38:23.624Z,13.80
2018-09-01T18:40:54.414Z,13.80
2018-09-01T18:43:25.189Z,13.80
2018-09-01T18:45:55.994Z,13.80
2018-09-01T18:48:26.200Z,13.80
2018-09-01T18:50:56.613Z,13.70
2018-09-01T18:53:26.911Z,13.70
2018-09-01T18:55:57.208Z,13.60
2018-09-01T18:58:27.965Z,13.60
2018-09-01T19:00:58.243Z,13.70
2018-09-01T19:03:28.612Z,13.70
2018-09-01T19:05:59.097Z,13.70
2018-09-01T19:08:29.930Z,13.70
2018-09-01T19:11:00.223Z,13.60
2018-09-01T19:13:30.935Z,13.60
2018-09-01T19:16:01.639Z,13.60
2018-09-01T19:18:32.259Z,13.50
2018-09-01T19:21:02.573Z,13.60
2018-09-01T19:23:33.291Z,13.60
2018-09-01T19:26:03.560Z,13.60
2018-09-01T19:28:34.368Z,13.70
2018-09-01T19:31:05.122Z,13.70
2018-09-01T19:33:35.834Z,13.70
2018-09-01T19:36:06.494Z,13.70
2018-09-01T19:38:36.707Z,13.60
2018-09-01T19:41:07.591Z,13.60
2018-09-01T19:43:38.541Z,13.60
2018-09-01T19:46:09.096Z,13.60
2018-09-01T19:48:40.118Z,13.60
2018-09-01T19:51:10.725Z,13.50
2018-09-01T19:53:41.153Z,13.50
2018-09-01T19:56:11.721Z,13.60
2018-09-01T19:58:42.672Z,13.60
2018-09-01T20:01:13.224Z,13.60
2018-09-01T20:03:43.673Z,13.50
2018-09-01T20:06:14.198Z,13.50
2018-09-01T20:08:44.684Z,13.50
2018-09-01T20:11:14.986Z,13.50
2018-09-01T20:13:45.450Z,13.50
2018-09-01T20:16:15.973Z,13.60
2018-09-01T20:18:46.559Z,13.60
2018-09-01T20:21:16.833Z,13.60
2018-09-01T20:23:47.322Z,13.60
2018-09-01T20:26:17.854Z,13.50
2018-09-01T20:28:48.291Z,13.50
2018-09-01T20:31:18.584Z,13.40
2018-09-01T20:33:49.115Z,13.30
2018-09-01T20:36:21.811Z,13.20
2018-09-01T20:38:52.176Z,13.10
2018-09-01T20:41:22.559Z,13.00
2018-09-01T20:43:52.840Z,12.80
2018-09-01T20:46:23.410Z,12.70
2018-09-01T20:48:53.839Z,12.60
2018-09-01T20:51:24.272Z,12.50
2018-09-01T20:53:54.877Z,12.40
2018-09-01T20:56:25.356Z,12.30
2018-09-01T20:58:55.936Z,12.20
2018-09-01T21:01:27.105Z,12.20
2018-09-01T21:03:57.657Z,12.20
2018-09-01T21:06:28.025Z,12.20
2018-09-01T21:08:58.400Z,12.20
2018-09-01T21:11:28.635Z,12.30
2018-09-01T21:13:59.491Z,12.40
2018-09-01T21:16:30.275Z,12.50
2018-09-01T21:19:00.723Z,12.50
2018-09-01T21:21:31.383Z,12.50
2018-09-01T21:24:01.890Z,12.50
2018-09-01T21:26:32.474Z,12.50
2018-09-01T21:29:03.446Z,12.60
2018-09-01T21:31:33.879Z,12.60
2018-09-01T21:34:05.356Z,12.70
2018-09-01T21:36:36.014Z,12.70
2018-09-01T21:39:08.311Z,12.80
2018-09-01T21:41:38.937Z,12.80
2018-09-01T21:44:09.209Z,12.80
2018-09-01T21:46:40.138Z,12.90
2018-09-01T21:49:10.713Z,12.80
2018-09-01T21:51:41.345Z,12.80
2018-09-01T21:54:12.020Z,12.80
2018-09-01T21:56:42.834Z,12.80
2018-09-01T21:59:13.416Z,12.70
2018-09-01T22:01:47.921Z,12.70
2018-09-01T22:04:18.638Z,12.80
2018-09-01T22:06:48.892Z,12.90
2018-09-01T22:09:19.122Z,12.90
2018-09-01T22:11:50.171Z,12.90
2018-09-01T22:14:20.794Z,12.90
2018-09-01T22:16:51.277Z,12.80
2018-09-01T22:19:21.803Z,12.80
2018-09-01T22:21:53.019Z,12.80
2018-09-01T22:24:23.372Z,12.70
2018-09-01T22:26:54.277Z,12.70
2018-09-01T22:29:24.757Z,12.60
2018-09-01T22:31:55.570Z,12.60
2018-09-01T22:34:26.348Z,12.50
2018-09-01T22:36:56.771Z,12.50
2018-09-01T22:39:27.025Z,12.40
2018-09-01T22:41:57.235Z,12.40
2018-09-01T22:44:27.453Z,12.40
2018-09-01T22:46:59.481Z,12.40
2018-09-01T22:49:29.997Z,12.40
2018-09-01T22:52:00.608Z,12.40
2018-09-01T22:54:31.290Z,12.40
2018-09-01T22:57:01.907Z,12.40
2018-09-01T22:59:32.025Z,12.40
2018-09-01T23:02:02.616Z,12.40
2018-09-01T23:04:33.380Z,12.30
2018-09-01T23:07:04.190Z,12.30
2018-09-01T23:09:34.429Z,12.30
2018-09-01T23:12:04.678Z,12.30
2018-09-01T23:14:34.853Z,12.30
2018-09-01T23:17:05.655Z,12.20
2018-09-01T23:19:36.149Z,12.30
2018-09-01T23:22:06.434Z,12.20
2018-09-01T23:24:36.946Z,12.20
2018-09-01T23:27:07.532Z,12.20
2018-09-01T23:29:38.141Z,12.20
2018-09-01T23:32:08.790Z,12.20
2018-09-01T23:34:40.100Z,12.30
2018-09-01T23:37:10.568Z,12.30
2018-09-01T23:39:41.174Z,12.20
2018-09-01T23:42:11.526Z,12.20
2018-09-01T23:44:42.229Z,12.20
2018-09-01T23:47:12.587Z,12.20
2018-09-01T23:49:42.897Z,12.20
2018-09-01T23:52:13.348Z,12.20
2018-09-01T23:54:44.268Z,12.20
2018-09-01T23:57:15.071Z,12.30
2018-09-01T23:59:45.796Z,12.30
